createdAt,value
2022-12-08T00:00:07.302Z,-0.60
2022-12-08T00:03:14.815Z,-0.62
2022-12-08T00:06:17.556Z,-0.64
2022-12-08T00:09:06.574Z,-0.69
2022-12-08T00:11:40.340Z,-0.73
2022-12-08T00:14:14.854Z,-0.73
2022-12-08T00:16:45.051Z,-0.72
2022-12-08T00:19:16.891Z,-0.74
2022-12-08T00:21:55.075Z,-0.74
2022-12-08T00:24:45.781Z,-0.79
2022-12-08T00:27:41.074Z,-0.83
2022-12-08T00:30:22.907Z,-0.85
2022-12-08T00:33:05.791Z,-0.86
2022-12-08T00:35:43.401Z,-0.87
2022-12-08T00:38:19.230Z,-0.87
2022-12-08T00:40:55.471Z,-0.89
2022-12-08T00:43:33.126Z,-0.90
2022-12-08T00:46:15.156Z,-0.93
2022-12-08T00:49:04.072Z,-0.95
2022-12-08T00:51:42.915Z,-0.95
2022-12-08T00:54:22.484Z,-0.98
2022-12-08T00:56:59.883Z,-1.01
2022-12-08T00:59:42.987Z,-1.04
2022-12-08T01:02:40.017Z,-1.09
2022-12-08T01:05:38.707Z,-1.11
2022-12-08T01:08:28.654Z,-1.13
2022-12-08T01:11:21.436Z,-1.16
2022-12-08T01:15:02.451Z,-1.21
2022-12-08T01:21:29.117Z,-1.23
2022-12-08T01:24:18.132Z,-1.25
2022-12-08T01:27:09.501Z,-1.27
2022-12-08T01:29:56.134Z,-1.30
2022-12-08T01:32:40.606Z,-1.34
2022-12-08T01:35:23.976Z,-1.36
2022-12-08T01:38:08.126Z,-1.38
2022-12-08T01:40:48.605Z,-1.37
2022-12-08T01:43:30.535Z,-1.37
2022-12-08T01:46:23.997Z,-1.36
2022-12-08T01:49:58.268Z,-1.36
2022-12-08T01:53:29.738Z,-1.36
2022-12-08T01:56:47.928Z,-1.34
2022-12-08T01:59:48.524Z,-1.33
2022-12-08T02:02:50.147Z,-1.33
2022-12-08T02:05:49.462Z,-1.35
2022-12-08T02:08:57.492Z,-1.37
2022-12-08T02:11:51.120Z,-1.42
2022-12-08T02:14:29.993Z,-1.44
2022-12-08T02:17:30.940Z,-1.45
2022-12-08T02:20:42.504Z,-1.47
2022-12-08T02:23:21.360Z,-1.50
2022-12-08T02:26:21.864Z,-1.53
2022-12-08T02:29:38.128Z,-1.56
2022-12-08T02:32:24.095Z,-1.58
2022-12-08T02:35:24.314Z,-1.58
2022-12-08T02:38:39.804Z,-1.58
2022-12-08T02:41:48.103Z,-1.60
2022-12-08T02:44:42.383Z,-1.61
2022-12-08T02:47:28.930Z,-1.64
2022-12-08T02:50:25.389Z,-1.65
2022-12-08T02:56:26.392Z,-1.59
2022-12-08T02:59:51.560Z,-1.56
2022-12-08T03:02:39.756Z,-1.57
2022-12-08T03:05:50.491Z,-1.60
2022-12-08T03:09:37.329Z,-1.64
2022-12-08T03:12:44.567Z,-1.64
2022-12-08T03:16:00.453Z,-1.64
2022-12-08T03:19:49.934Z,-1.66
2022-12-08T03:22:59.334Z,-1.70
2022-12-08T03:33:24.110Z,-1.74
2022-12-08T03:43:49.873Z,-1.81
2022-12-08T03:46:57.407Z,-1.79
2022-12-08T03:49:50.397Z,-1.77
2022-12-08T03:52:46.920Z,-1.75
2022-12-08T03:56:01.868Z,-1.76
2022-12-08T03:59:41.166Z,-1.81
2022-12-08T04:10:45.418Z,-1.86
2022-12-08T04:22:21.466Z,-1.85
2022-12-08T04:23:50.263Z,-1.89
2022-12-08T04:36:34.405Z,-1.64
2022-12-08T04:40:00.168Z,-1.57
2022-12-08T04:43:23.894Z,-1.51
2022-12-08T04:46:30.550Z,-1.48
2022-12-08T04:49:33.250Z,-1.48
2022-12-08T04:52:50.623Z,-1.44
2022-12-08T04:55:49.167Z,-1.41
2022-12-08T04:59:24.191Z,-1.39
2022-12-08T05:02:30.413Z,-1.40
2022-12-08T05:05:54.782Z,-1.41
2022-12-08T05:08:46.745Z,-1.44
2022-12-08T05:11:38.585Z,-1.43
2022-12-08T05:14:39.306Z,-1.41
2022-12-08T05:17:27.996Z,-1.39
2022-12-08T05:20:14.696Z,-1.40
2022-12-08T05:23:00.513Z,-1.41
2022-12-08T05:25:47.869Z,-1.44
2022-12-08T05:28:42.724Z,-1.43
2022-12-08T05:31:42.732Z,-1.41
2022-12-08T05:34:45.498Z,-1.39
2022-12-08T05:46:39.670Z,-1.40
2022-12-08T05:57:27.578Z,-1.40
2022-12-08T06:00:14.316Z,-1.40
2022-12-08T06:02:52.795Z,-1.40
2022-12-08T06:05:23.125Z,-1.40
2022-12-08T06:07:54.959Z,-1.41
2022-12-08T06:10:24.265Z,-1.41
2022-12-08T06:16:09.485Z,-1.35
2022-12-08T06:18:39.607Z,-1.32
2022-12-08T06:21:12.543Z,-1.33
2022-12-08T06:23:42.472Z,-1.33
2022-12-08T06:26:18.861Z,-1.34
2022-12-08T06:28:49.101Z,-1.34
2022-12-08T06:31:26.759Z,-1.36
2022-12-08T06:34:00.432Z,-1.35
2022-12-08T06:36:35.600Z,-1.37
2022-12-08T06:39:04.616Z,-1.42
2022-12-08T06:41:33.452Z,-1.44
2022-12-08T06:44:03.013Z,-1.49
2022-12-08T06:46:33.664Z,-1.51
2022-12-08T06:49:03.625Z,-1.55
2022-12-08T06:51:33.726Z,-1.57
2022-12-08T06:54:02.671Z,-1.61
2022-12-08T06:56:32.232Z,-1.66
2022-12-08T06:59:02.338Z,-1.70
2022-12-08T07:01:37.839Z,-1.72
2022-12-08T07:04:08.935Z,-1.77
2022-12-08T07:06:38.437Z,-1.81
2022-12-08T07:09:08.410Z,-1.84
2022-12-08T07:11:40.087Z,-1.88
2022-12-08T07:14:15.583Z,-1.93
2022-12-08T07:16:45.428Z,-1.98
2022-12-08T07:19:15.009Z,-2.00
2022-12-08T07:21:49.602Z,-2.01
2022-12-08T07:24:29.105Z,-2.04
2022-12-08T07:27:06.930Z,-2.06
2022-12-08T07:29:39.397Z,-2.06
2022-12-08T07:32:11.373Z,-2.07
2022-12-08T07:34:42.369Z,-2.06
2022-12-08T07:37:11.926Z,-2.07
2022-12-08T07:39:49.055Z,-2.08
2022-12-08T07:42:25.832Z,-2.08
2022-12-08T07:45:03.367Z,-2.08
2022-12-08T07:47:39.440Z,-2.07
2022-12-08T07:50:14.414Z,-2.05
2022-12-08T07:52:55.865Z,-2.00
2022-12-08T07:55:30.537Z,-1.98
2022-12-08T07:58:06.876Z,-1.96
2022-12-08T08:00:46.424Z,-1.94
2022-12-08T08:03:30.682Z,-1.88
2022-12-08T08:06:10.252Z,-1.85
2022-12-08T08:08:46.434Z,-1.83
2022-12-08T08:11:24.632Z,-1.80
2022-12-08T08:14:02.680Z,-1.75
2022-12-08T08:16:38.798Z,-1.69
2022-12-08T08:19:12.384Z,-1.65
2022-12-08T08:21:46.855Z,-1.60
2022-12-08T08:24:28.227Z,-1.56
2022-12-08T08:27:04.529Z,-1.55
2022-12-08T08:29:40.093Z,-1.56
2022-12-08T08:32:17.153Z,-1.58
2022-12-08T08:34:57.046Z,-1.57
2022-12-08T08:37:35.955Z,-1.52
2022-12-08T08:40:16.286Z,-1.48
2022-12-08T08:42:55.218Z,-1.46
2022-12-08T08:45:30.763Z,-1.43
2022-12-08T08:48:04.171Z,-1.42
2022-12-08T08:50:40.338Z,-1.39
2022-12-08T08:53:15.952Z,-1.33
2022-12-08T08:55:54.438Z,-1.22
2022-12-08T08:58:28.978Z,-1.10
2022-12-08T09:01:03.975Z,-0.98
2022-12-08T09:03:39.868Z,-0.89
2022-12-08T09:06:17.444Z,-0.80
2022-12-08T09:08:51.748Z,-0.71
2022-12-08T09:12:30.002Z,-0.63
2022-12-08T09:16:11.007Z,-0.55
2022-12-08T09:18:58.207Z,-0.44
2022-12-08T09:21:33.509Z,-0.38
2022-12-08T09:32:40.651Z,-0.29
2022-12-08T09:35:12.155Z,-0.22
2022-12-08T09:37:41.764Z,-0.12
2022-12-08T09:40:28.678Z,-0.02
2022-12-08T09:43:10.853Z,0.02
2022-12-08T09:45:43.149Z,0.03
2022-12-08T09:48:19.911Z,0.03
2022-12-08T09:54:20.210Z,0.05
2022-12-08T09:57:06.511Z,0.03
2022-12-08T09:59:43.038Z,-0.01
2022-12-08T10:02:30.395Z,0.03
2022-12-08T10:05:06.612Z,0.12
2022-12-08T10:08:26.097Z,0.22
2022-12-08T10:11:15.796Z,0.29
2022-12-08T10:14:30.753Z,0.34
2022-12-08T10:17:25.016Z,0.37
2022-12-08T10:20:32.308Z,0.41
2022-12-08T10:23:18.653Z,0.48
2022-12-08T10:26:10.086Z,0.48
2022-12-08T10:28:55.774Z,0.51
2022-12-08T10:31:39.169Z,0.54
2022-12-08T10:34:29.867Z,0.53
2022-12-08T10:37:17.086Z,0.50
2022-12-08T10:40:08.159Z,0.47
2022-12-08T10:43:01.780Z,0.46
2022-12-08T10:45:55.159Z,0.51
2022-12-08T10:48:43.235Z,0.57
2022-12-08T10:51:49.399Z,0.62
2022-12-08T10:54:43.887Z,0.66
2022-12-08T10:57:37.006Z,0.74
2022-12-08T11:00:15.466Z,0.80
2022-12-08T11:03:03.213Z,0.86
2022-12-08T11:05:36.329Z,0.99
2022-12-08T11:08:06.500Z,1.05
2022-12-08T11:10:44.150Z,1.05
2022-12-08T11:13:21.494Z,1.06
2022-12-08T11:15:50.799Z,1.11
2022-12-08T11:18:41.187Z,1.12
2022-12-08T11:21:17.803Z,1.11
2022-12-08T11:23:50.906Z,1.19
2022-12-08T11:26:32.707Z,1.29
2022-12-08T11:29:00.553Z,1.33
2022-12-08T11:31:35.858Z,1.38
2022-12-08T11:34:04.524Z,1.43
2022-12-08T11:36:35.871Z,1.45
2022-12-08T11:39:05.971Z,1.39
2022-12-08T11:41:39.453Z,1.29
2022-12-08T11:44:22.417Z,1.20
2022-12-08T11:47:00.272Z,1.14
2022-12-08T11:49:39.851Z,1.03
2022-12-08T11:52:47.836Z,0.91
2022-12-08T11:55:36.965Z,0.77
2022-12-08T11:58:42.176Z,0.68
2022-12-08T12:01:28.705Z,0.63
2022-12-08T12:04:49.965Z,0.63
2022-12-08T12:07:33.797Z,0.58
2022-12-08T12:10:46.119Z,0.58
2022-12-08T12:13:22.475Z,0.55
2022-12-08T12:16:24.349Z,0.54
2022-12-08T12:19:05.009Z,0.53
2022-12-08T12:21:59.262Z,0.56
2022-12-08T12:24:36.258Z,0.50
2022-12-08T12:27:22.240Z,0.50
2022-12-08T12:29:59.451Z,0.48
2022-12-08T12:32:45.532Z,0.47
2022-12-08T12:35:26.811Z,0.49
2022-12-08T12:38:04.084Z,0.51
2022-12-08T12:40:49.662Z,0.53
2022-12-08T12:43:32.176Z,0.56
2022-12-08T12:46:24.493Z,0.60
2022-12-08T12:49:35.609Z,0.63
2022-12-08T12:52:16.615Z,0.63
2022-12-08T12:54:53.331Z,0.65
2022-12-08T12:57:53.336Z,0.70
2022-12-08T13:06:46.324Z,0.72
2022-12-08T13:09:35.527Z,0.68
2022-12-08T13:12:13.444Z,0.66
2022-12-08T13:14:52.220Z,0.65
2022-12-08T13:17:29.554Z,0.65
2022-12-08T13:20:02.682Z,0.65
2022-12-08T13:23:02.125Z,0.63
2022-12-08T13:25:45.885Z,0.62
2022-12-08T13:37:14.177Z,0.62
2022-12-08T13:39:52.173Z,0.63
2022-12-08T13:42:47.719Z,0.62
2022-12-08T13:45:58.980Z,0.63
2022-12-08T13:57:37.206Z,0.70
2022-12-08T14:00:17.670Z,0.68
2022-12-08T14:09:10.403Z,0.68
2022-12-08T14:11:56.915Z,0.67
2022-12-08T14:17:27.412Z,0.65
2022-12-08T14:20:23.907Z,0.62
2022-12-08T14:22:56.158Z,0.59
2022-12-08T14:25:32.896Z,0.56
2022-12-08T14:28:07.927Z,0.58
2022-12-08T14:30:41.032Z,0.58
2022-12-08T14:33:17.330Z,0.59
2022-12-08T14:35:57.445Z,0.58
2022-12-08T14:38:27.597Z,0.56
2022-12-08T14:41:09.897Z,0.56
2022-12-08T14:43:41.978Z,0.56
2022-12-08T14:46:24.619Z,0.56
2022-12-08T14:48:55.549Z,0.57
2022-12-08T14:51:33.914Z,0.55
2022-12-08T14:54:09.821Z,0.54
2022-12-08T14:56:54.086Z,0.52
2022-12-08T14:59:31.477Z,0.51
2022-12-08T15:02:20.232Z,0.49
2022-12-08T15:04:57.855Z,0.50
2022-12-08T15:07:31.793Z,0.51
2022-12-08T15:10:33.192Z,0.51
2022-12-08T15:13:13.095Z,0.50
2022-12-08T15:15:46.959Z,0.48
2022-12-08T15:18:19.982Z,0.46
2022-12-08T15:20:57.302Z,0.44
2022-12-08T15:23:38.807Z,0.44
2022-12-08T15:26:10.115Z,0.42
